Time;durP1;ratioP1;P1;durP2;ratioP2;P2;SDS_P1;SDS_P2;PMS_P1;PMS_P2;Temp;Humidity;BMP_temperature;BMP_pressure;BME280_temperature;BME280_humidity;BME280_pressure;Samples;Min_cycle;Max_cycle;Signal;HPM_P1;HPM_P2
2022/09/06 00:00:28;;;;;;;5.90;3.10;;;21.50;96.80;;;;;;5034792;28;20052;-79
2022/09/06 00:02:54;;;;;;;4.60;3.25;;;21.40;96.90;;;;;;5034769;28;20122;-79
2022/09/06 00:05:20;;;;;;;4.18;3.25;;;21.30;96.90;;;;;;5051698;28;20144;-79
2022/09/06 00:07:46;;;;;;;4.13;3.38;;;21.30;97.10;;;;;;5018540;28;20433;-80
2022/09/06 00:10:12;;;;;;;5.97;3.38;;;21.30;97.20;;;;;;5051186;28;20048;-79
2022/09/06 00:12:38;;;;;;;;;;;21.20;97.20;;;;;;5035465;28;20508;-78
2022/09/06 00:15:05;;;;;;;8.85;3.78;;;21.10;97.50;;;;;;5051252;28;20002;-79
2022/09/06 00:17:32;;;;;;;4.68;3.53;;;21.10;97.30;;;;;;5018948;28;20066;-79
2022/09/06 00:19:57;;;;;;;7.10;3.75;;;21.10;97.50;;;;;;5020938;28;20058;-79
2022/09/06 00:22:23;;;;;;;6.95;3.53;;;21.10;97.30;;;;;;5021753;28;20489;-79
2022/09/06 00:24:49;;;;;;;6.25;3.47;;;21.00;97.60;;;;;;5021418;28;20130;-79
2022/09/06 00:27:15;;;;;;;5.60;3.67;;;21.00;97.70;;;;;;5037822;28;20134;-78
2022/09/06 00:29:40;;;;;;;8.10;3.80;;;21.00;97.70;;;;;;5021665;28;20050;-79
2022/09/06 00:32:07;;;;;;;5.00;3.58;;;20.90;97.70;;;;;;5037943;28;20054;-79
2022/09/06 00:34:32;;;;;;;6.97;4.32;;;21.00;97.80;;;;;;5037289;28;20039;-79
2022/09/06 00:36:58;;;;;;;4.47;3.70;;;20.90;97.90;;;;;;5040782;28;20445;-78
2022/09/06 00:39:24;;;;;;;4.88;3.38;;;20.80;98.00;;;;;;5025103;28;20039;-79
2022/09/06 00:41:51;;;;;;;5.53;3.40;;;20.80;98.00;;;;;;5041187;28;20081;-79
2022/09/06 00:44:17;;;;;;;4.93;3.78;;;20.70;98.10;;;;;;5024720;28;20396;-79
2022/09/06 00:46:45;;;;;;;6.82;3.60;;;20.70;98.20;;;;;;5040815;28;20126;-79
2022/09/06 00:49:23;;;;;;;6.63;4.15;;;20.70;98.20;;;;;;5074352;28;20047;-79
2022/09/06 00:52:17;;;;;;;8.32;3.55;;;20.70;98.10;;;;;;5024386;28;20054;-79
2022/09/06 00:54:43;;;;;;;6.72;3.35;;;20.70;98.30;;;;;;5038079;28;20051;-79
2022/09/06 00:57:09;;;;;;;5.95;3.85;;;20.70;98.20;;;;;;5040800;28;20039;-79
2022/09/06 00:59:36;;;;;;;;;;;20.80;98.30;;;;;;5041335;28;20036;-79
2022/09/06 01:02:04;;;;;;;8.18;3.60;;;20.80;98.60;;;;;;5040446;28;20012;-79
2022/09/06 01:04:31;;;;;;;7.20;3.70;;;20.70;98.60;;;;;;5040415;28;20105;-79
2022/09/06 01:07:06;;;;;;;7.43;4.25;;;20.60;98.50;;;;;;5024396;28;20042;-79
2022/09/06 01:09:59;;;;;;;6.10;3.53;;;20.60;98.60;;;;;;5024101;28;20096;-79
2022/09/06 01:12:39;;;;;;;6.88;4.03;;;20.70;99.10;;;;;;5057292;28;20050;-79
2022/09/06 01:15:36;;;;;;;7.47;3.92;;;20.50;99.40;;;;;;5040518;28;20047;-79
2022/09/06 01:18:20;;;;;;;6.63;3.90;;;20.30;99.80;;;;;;5053598;28;20064;-79
2022/09/06 01:21:05;;;;;;;6.45;3.90;;;20.10;99.90;;;;;;5037240;28;20049;-79
2022/09/06 01:23:50;;;;;;;5.47;4.00;;;20.60;99.90;;;;;;5053693;28;20037;-79
2022/09/06 01:26:38;;;;;;;7.45;4.10;;;20.00;99.90;;;;;;5054735;28;20039;-79
2022/09/06 01:29:22;;;;;;;5.85;3.83;;;20.00;99.90;;;;;;5087361;28;20491;-79
2022/09/06 01:31:55;;;;;;;5.32;3.22;;;20.10;99.90;;;;;;5037369;28;20047;-79
2022/09/06 01:34:33;;;;;;;6.13;3.67;;;20.20;99.90;;;;;;5053799;28;20100;-78
2022/09/06 01:37:04;;;;;;;7.43;3.85;;;20.20;99.90;;;;;;5053800;28;20078;-78
2022/09/06 01:39:32;;;;;;;6.53;3.53;;;20.20;99.90;;;;;;5037091;28;20516;-78
2022/09/06 01:42:03;;;;;;;6.78;3.72;;;20.10;99.90;;;;;;5053292;28;20506;-78
2022/09/06 01:44:30;;;;;;;6.78;4.15;;;20.10;99.90;;;;;;5053254;28;20033;-78
2022/09/06 01:47:22;;;;;;;6.50;4.07;;;20.00;99.90;;;;;;5019699;28;20483;-78
2022/09/06 01:50:10;;;;;;;6.18;3.97;;;20.10;99.90;;;;;;5036489;28;20064;-78
2022/09/06 01:52:57;;;;;;;4.45;3.75;;;20.20;99.90;;;;;;5053303;28;20052;-78
2022/09/06 01:55:50;;;;;;;4.47;3.88;;;20.10;99.90;;;;;;5036381;28;20064;-78
2022/09/06 01:58:32;;;;;;;4.70;3.83;;;20.10;99.90;;;;;;5053052;28;20036;-79
2022/09/06 02:01:30;;;;;;;9.57;5.10;;;20.00;99.90;;;;;;5086272;28;20049;-79
2022/09/06 02:04:00;;;;;;;;;;;20.00;99.90;;;;;;5016938;28;20059;-78
2022/09/06 02:06:35;;;;;;;6.68;4.13;;;19.90;99.90;;;;;;5036596;28;19916;-78
2022/09/06 02:09:11;;;;;;;6.60;3.88;;;20.00;99.90;;;;;;5052749;28;20045;-78
2022/09/06 02:11:42;;;;;;;5.67;4.50;;;20.00;99.90;;;;;;5053105;28;20611;-79
2022/09/06 02:14:13;;;;;;;7.95;3.97;;;19.90;99.90;;;;;;5069389;28;20419;-78
2022/09/06 02:16:42;;;;;;;6.47;3.95;;;19.90;99.90;;;;;;5052869;28;20044;-78
2022/09/06 02:19:35;;;;;;;5.63;4.18;;;19.90;99.90;;;;;;5050108;28;20426;-78
2022/09/06 02:22:08;;;;;;;4.90;4.03;;;19.80;99.90;;;;;;5042633;28;20049;-78
2022/09/06 02:24:37;;;;;;;6.55;3.95;;;19.80;99.90;;;;;;5052764;28;20045;-78
2022/09/06 02:27:06;;;;;;;5.55;3.65;;;19.80;99.90;;;;;;5052769;28;20129;-78
2022/09/06 02:29:33;;;;;;;6.50;4.03;;;20.00;99.90;;;;;;5052522;28;20077;-78
2022/09/06 02:32:19;;;;;;;5.75;3.97;;;19.80;99.90;;;;;;5052360;28;20045;-78
2022/09/06 02:34:45;;;;;;;6.45;4.20;;;19.80;99.90;;;;;;5052333;28;20044;-78
2022/09/06 02:37:12;;;;;;;5.22;4.20;;;19.80;99.90;;;;;;5052537;28;20797;-79
2022/09/06 02:39:38;;;;;;;6.93;3.83;;;19.80;99.90;;;;;;5035967;28;20041;-79
2022/09/06 02:42:06;;;;;;;5.72;4.32;;;19.70;99.90;;;;;;5052527;28;20444;-78
2022/09/06 02:44:32;;;;;;;7.32;4.68;;;20.00;99.90;;;;;;5035854;28;20048;-79
2022/09/06 02:46:58;;;;;;;7.00;4.28;;;19.70;99.90;;;;;;5052412;28;20449;-79
2022/09/06 02:49:24;;;;;;;4.53;4.05;;;19.70;99.90;;;;;;5051950;28;20418;-79
2022/09/06 02:51:49;;;;;;;4.95;4.18;;;19.70;99.90;;;;;;5052017;28;20037;-79
2022/09/06 02:54:15;;;;;;;4.68;4.13;;;19.60;99.90;;;;;;5052303;28;20070;-79
2022/09/06 02:56:41;;;;;;;5.60;4.07;;;19.60;99.90;;;;;;5052095;28;20083;-79
2022/09/06 02:59:07;;;;;;;5.70;4.13;;;19.60;99.90;;;;;;5035523;28;20049;-78
2022/09/06 03:01:32;;;;;;;5.68;4.53;;;19.50;99.90;;;;;;5035175;28;20044;-79
2022/09/06 03:03:58;;;;;;;4.93;4.00;;;19.50;99.90;;;;;;5035124;28;20278;-78
2022/09/06 03:06:24;;;;;;;4.53;4.10;;;19.50;99.90;;;;;;5051994;28;20029;-79
2022/09/06 03:08:50;;;;;;;7.13;4.20;;;19.50;99.90;;;;;;5035018;28;20076;-78
2022/09/06 03:11:16;;;;;;;7.43;4.65;;;19.50;99.90;;;;;;5052102;28;20049;-78
2022/09/06 03:13:42;;;;;;;7.78;4.55;;;19.40;99.90;;;;;;5051927;28;20466;-78
2022/09/06 03:16:08;;;;;;;8.35;5.10;;;19.40;99.90;;;;;;5035656;28;20105;-78
2022/09/06 03:18:34;;;;;;;8.18;5.20;;;19.40;99.90;;;;;;5034848;28;20387;-78
2022/09/06 03:20:59;;;;;;;7.05;5.25;;;19.40;99.90;;;;;;5051805;28;20406;-79
2022/09/06 03:23:27;;;;;;;6.68;5.45;;;19.30;99.90;;;;;;5051554;28;20047;-79
2022/09/06 03:25:52;;;;;;;10.02;5.47;;;19.30;99.90;;;;;;5051882;28;20098;-80
2022/09/06 03:28:19;;;;;;;8.20;5.90;;;19.30;99.90;;;;;;5051194;28;20045;-77
2022/09/06 03:30:50;;;;;;;6.93;5.00;;;19.30;99.90;;;;;;5051759;28;20561;-79
2022/09/06 03:33:16;;;;;;;6.03;5.05;;;19.20;99.90;;;;;;5051334;28;20044;-78
2022/09/06 03:35:53;;;;;;;6.18;5.35;;;19.20;99.90;;;;;;5034956;28;20119;-78
2022/09/06 03:38:20;;;;;;;9.85;5.28;;;19.20;99.90;;;;;;5034719;28;20083;-79
2022/09/06 03:40:47;;;;;;;5.95;4.88;;;19.10;99.90;;;;;;5034765;28;20052;-78
2022/09/06 03:43:14;;;;;;;8.57;5.15;;;19.10;99.90;;;;;;5051226;28;20032;-77
2022/09/06 03:45:39;;;;;;;6.72;5.00;;;19.10;99.90;;;;;;5051283;28;20036;-78
2022/09/06 03:48:05;;;;;;;7.13;5.18;;;19.20;99.90;;;;;;5034922;28;20094;-78
2022/09/06 03:50:31;;;;;;;7.10;5.40;;;19.20;99.90;;;;;;5051304;28;20049;-78
2022/09/06 03:52:57;;;;;;;7.90;5.78;;;19.10;99.90;;;;;;5034855;28;20494;-78
2022/09/06 03:55:22;;;;;;;8.00;4.90;;;19.10;99.90;;;;;;5051030;28;20081;-78
2022/09/06 03:57:48;;;;;;;7.95;5.13;;;19.10;99.90;;;;;;5051066;28;20458;-78
2022/09/06 04:00:14;;;;;;;5.60;5.07;;;19.10;99.90;;;;;;5034137;28;20457;-79
2022/09/06 04:02:40;;;;;;;6.72;5.22;;;19.10;99.90;;;;;;5051337;28;20045;-78
2022/09/06 04:05:06;;;;;;;7.30;5.38;;;19.10;99.90;;;;;;5051461;28;20479;-78
2022/09/06 04:07:31;;;;;;;9.90;5.45;;;19.10;99.90;;;;;;5034718;28;20497;-78
2022/09/06 04:09:57;;;;;;;6.15;5.55;;;19.10;99.90;;;;;;5051813;28;20045;-78
2022/09/06 04:12:23;;;;;;;7.90;5.57;;;19.10;99.90;;;;;;5055140;28;20048;-78
2022/09/06 04:14:49;;;;;;;12.65;5.85;;;19.10;99.90;;;;;;5055123;28;20049;-78
2022/09/06 04:17:14;;;;;;;6.95;5.90;;;19.10;99.90;;;;;;5038708;28;20387;-78
2022/09/06 04:19:40;;;;;;;8.05;5.97;;;19.10;99.90;;;;;;5036165;28;20053;-78
2022/09/06 04:22:06;;;;;;;8.73;5.80;;;19.10;99.90;;;;;;5055237;28;20041;-78
2022/09/06 04:24:31;;;;;;;5.75;5.20;;;19.10;99.90;;;;;;5038129;28;20494;-78
2022/09/06 04:26:57;;;;;;;10.80;5.78;;;19.10;99.90;;;;;;5038443;28;20464;-78
2022/09/06 04:29:23;;;;;;;7.30;5.93;;;19.10;99.90;;;;;;5055662;28;20608;-78
2022/09/06 04:31:49;;;;;;;7.75;5.97;;;19.10;99.90;;;;;;5038211;28;20086;-78
2022/09/06 04:34:15;;;;;;;8.73;5.93;;;19.10;99.90;;;;;;5054460;28;20378;-78
2022/09/06 04:36:41;;;;;;;6.93;5.90;;;19.20;99.90;;;;;;5038504;28;20132;-78
2022/09/06 04:39:07;;;;;;;;;;;19.10;99.90;;;;;;5055508;28;20080;-79
2022/09/06 04:41:32;;;;;;;7.70;6.05;;;19.10;99.90;;;;;;5054305;28;19963;-79
2022/09/06 04:43:58;;;;;;;7.15;6.43;;;19.10;99.90;;;;;;5037965;28;20413;-79
2022/09/06 04:46:29;;;;;;;9.68;6.72;;;19.10;99.90;;;;;;5054868;28;20371;-79
2022/09/06 04:48:55;;;;;;;7.70;6.25;;;19.10;99.90;;;;;;5054345;28;20041;-79
2022/09/06 04:51:21;;;;;;;;;;;19.10;99.90;;;;;;5038151;28;20033;-79
2022/09/06 04:53:47;;;;;;;7.85;6.30;;;19.10;99.90;;;;;;5038097;28;19917;-79
2022/09/06 04:56:19;;;;;;;7.38;6.57;;;19.10;99.90;;;;;;5054504;28;20048;-79
2022/09/06 04:58:46;;;;;;;6.88;6.18;;;19.10;99.90;;;;;;5054460;28;20037;-79
2022/09/06 05:01:12;;;;;;;9.02;6.13;;;19.10;99.90;;;;;;5054471;28;20402;-79
2022/09/06 05:03:38;;;;;;;;;;;19.10;99.90;;;;;;5054792;28;20541;-79
2022/09/06 05:06:10;;;;;;;9.07;6.95;;;19.10;99.90;;;;;;5053840;28;19916;-79
2022/09/06 05:08:40;;;;;;;9.55;6.65;;;19.10;99.90;;;;;;5054271;28;20371;-79
2022/09/06 05:11:07;;;;;;;8.05;6.80;;;19.00;99.90;;;;;;5054286;28;20094;-78
2022/09/06 05:13:33;;;;;;;9.32;6.22;;;19.00;99.90;;;;;;5053940;28;20044;-78
2022/09/06 05:16:00;;;;;;;9.75;6.43;;;19.00;99.90;;;;;;5054250;28;20036;-78
2022/09/06 05:18:26;;;;;;;8.25;6.32;;;19.00;99.90;;;;;;5037029;28;20124;-78
2022/09/06 05:20:52;;;;;;;8.18;6.88;;;19.00;99.90;;;;;;5053926;28;20490;-79
2022/09/06 05:23:19;;;;;;;8.98;6.88;;;19.00;99.90;;;;;;5035909;28;20041;-79
2022/09/06 05:25:45;;;;;;;8.23;6.75;;;19.00;99.90;;;;;;5054185;28;20466;-78
2022/09/06 05:28:11;;;;;;;8.73;7.00;;;19.00;99.90;;;;;;5037317;28;20119;-78
2022/09/06 05:30:37;;;;;;;12.27;6.70;;;18.90;99.90;;;;;;5036985;28;20453;-78
2022/09/06 05:33:02;;;;;;;7.70;6.80;;;19.00;99.90;;;;;;5053809;28;20131;-78
2022/09/06 05:35:28;;;;;;;9.63;7.22;;;19.00;99.90;;;;;;5020988;28;20049;-78
2022/09/06 05:37:54;;;;;;;10.55;7.00;;;18.90;99.90;;;;;;5037293;28;20037;-78
2022/09/06 05:40:19;;;;;;;9.88;7.45;;;18.90;99.90;;;;;;5037060;28;20395;-78
2022/09/06 05:42:45;;;;;;;9.50;7.57;;;18.90;99.90;;;;;;5036996;28;20069;-78
2022/09/06 05:45:10;;;;;;;10.52;7.47;;;18.80;99.90;;;;;;5053511;28;20041;-78
2022/09/06 05:47:37;;;;;;;8.82;7.43;;;18.80;99.90;;;;;;5053138;28;20044;-78
2022/09/06 05:50:03;;;;;;;;;;;18.80;99.90;;;;;;5054006;28;20056;-78
2022/09/06 05:52:29;;;;;;;8.32;7.53;;;18.80;99.90;;;;;;5069731;28;19921;-78
2022/09/06 05:54:54;;;;;;;13.15;7.75;;;18.80;99.90;;;;;;5053275;28;20509;-78
2022/09/06 05:57:20;;;;;;;8.10;7.28;;;18.80;99.90;;;;;;5053787;28;20435;-78
2022/09/06 05:59:46;;;;;;;10.93;7.38;;;18.80;99.90;;;;;;5053882;28;20049;-78
2022/09/06 06:02:11;;;;;;;8.52;7.65;;;18.80;99.90;;;;;;5053338;28;20047;-78
2022/09/06 06:04:37;;;;;;;10.65;7.93;;;18.80;99.90;;;;;;5053280;28;20059;-78
2022/09/06 06:07:05;;;;;;;10.27;8.13;;;18.80;99.90;;;;;;5053572;28;20048;-78
2022/09/06 06:09:31;;;;;;;9.55;7.88;;;18.80;99.90;;;;;;5037242;28;20049;-78
2022/09/06 06:11:57;;;;;;;10.55;8.05;;;18.80;99.90;;;;;;5053819;28;20464;-78
2022/09/06 06:14:23;;;;;;;8.65;7.75;;;18.80;99.90;;;;;;5053352;28;20037;-78
2022/09/06 06:16:48;;;;;;;12.40;8.30;;;18.80;99.90;;;;;;5053096;28;20053;-78
2022/09/06 06:19:14;;;;;;;11.35;8.23;;;18.80;99.90;;;;;;5050732;28;20057;-78
2022/09/06 06:21:40;;;;;;;11.60;8.57;;;18.80;99.90;;;;;;5020117;28;20048;-79
2022/09/06 06:24:06;;;;;;;9.82;8.27;;;18.90;99.90;;;;;;5037036;28;20104;-79
2022/09/06 06:26:34;;;;;;;10.60;8.32;;;18.80;99.90;;;;;;5053443;28;20040;-79
2022/09/06 06:29:04;;;;;;;9.95;8.63;;;18.90;99.90;;;;;;5053039;28;20543;-79
2022/09/06 06:31:31;;;;;;;14.93;8.70;;;18.90;99.90;;;;;;5052748;28;20502;-79
2022/09/06 06:33:57;;;;;;;9.75;8.80;;;18.90;99.90;;;;;;5052051;28;20123;-79
2022/09/06 06:36:29;;;;;;;9.52;8.63;;;18.90;99.90;;;;;;5036168;28;20524;-80
2022/09/06 06:38:55;;;;;;;9.95;9.00;;;18.90;99.90;;;;;;5052931;28;20041;-79
2022/09/06 06:41:24;;;;;;;10.90;9.80;;;18.90;99.90;;;;;;5035892;28;20041;-79
2022/09/06 06:43:51;;;;;;;11.15;8.70;;;18.90;99.90;;;;;;5053068;28;20071;-79
2022/09/06 06:46:18;;;;;;;11.40;9.43;;;18.90;99.90;;;;;;5052381;28;20049;-79
2022/09/06 06:48:44;;;;;;;10.18;8.80;;;18.90;99.90;;;;;;5035620;28;20044;-80
2022/09/06 06:51:15;;;;;;;11.23;8.90;;;18.90;99.90;;;;;;5019316;28;20051;-78
2022/09/06 06:53:42;;;;;;;11.18;9.30;;;18.90;99.90;;;;;;5052708;28;20104;-78
2022/09/06 06:56:24;;;;;;;10.32;9.23;;;19.00;99.90;;;;;;5052433;28;20102;-78
2022/09/06 06:58:52;;;;;;;11.40;9.93;;;19.00;99.90;;;;;;5052273;28;20123;-78
2022/09/06 07:01:19;;;;;;;10.85;8.95;;;19.00;99.90;;;;;;5035714;28;20486;-78
2022/09/06 07:03:46;;;;;;;9.88;8.75;;;19.00;99.90;;;;;;5035382;28;20044;-78
2022/09/06 07:06:12;;;;;;;11.90;9.10;;;19.10;99.90;;;;;;5035528;28;20069;-78
2022/09/06 07:08:38;;;;;;;10.23;8.98;;;19.20;99.90;;;;;;5052271;28;20041;-78
2022/09/06 07:11:05;;;;;;;;;;;19.30;99.90;;;;;;5052482;28;20128;-78
2022/09/06 07:13:32;;;;;;;10.88;8.80;;;19.30;99.90;;;;;;5052045;28;19923;-78
2022/09/06 07:16:17;;;;;;;10.10;9.05;;;19.40;99.90;;;;;;5035260;28;20056;-78
2022/09/06 07:18:44;;;;;;;10.40;9.20;;;19.50;99.90;;;;;;5051557;28;20132;-78
2022/09/06 07:21:15;;;;;;;10.48;9.38;;;19.60;99.90;;;;;;5085162;28;20099;-78
2022/09/06 07:23:41;;;;;;;10.27;9.18;;;20.00;99.90;;;;;;5051903;28;20037;-78
2022/09/06 07:26:14;;;;;;;10.07;9.07;;;20.50;99.90;;;;;;5035900;28;20491;-78
2022/09/06 07:28:40;;;;;;;12.35;9.25;;;20.70;99.90;;;;;;5052444;28;20051;-78
2022/09/06 07:31:05;;;;;;;10.23;9.13;;;20.90;99.90;;;;;;5086121;28;20128;-78
2022/09/06 07:33:34;;;;;;;9.48;8.45;;;21.00;99.90;;;;;;5035621;28;20045;-78
2022/09/06 07:36:02;;;;;;;9.02;8.23;;;21.40;99.90;;;;;;5035116;28;20040;-78
2022/09/06 07:38:28;;;;;;;10.80;9.15;;;21.70;99.90;;;;;;5035348;28;20063;-78
2022/09/06 07:40:55;;;;;;;;;;;22.20;99.90;;;;;;5052245;28;20392;-78
2022/09/06 07:43:21;;;;;;;9.23;8.32;;;22.70;99.90;;;;;;5051954;28;20016;-78
2022/09/06 07:45:47;;;;;;;14.55;8.68;;;23.20;99.90;;;;;;5050262;28;20037;-79
2022/09/06 07:48:12;;;;;;;10.52;7.95;;;23.30;99.90;;;;;;5051549;28;20045;-78
2022/09/06 07:50:38;;;;;;;10.13;9.13;;;23.40;99.90;;;;;;5018892;28;20052;-79
2022/09/06 07:53:09;;;;;;;10.65;9.50;;;23.50;99.90;;;;;;5052005;28;20060;-78
2022/09/06 07:55:34;;;;;;;9.93;8.93;;;23.10;99.90;;;;;;5051882;28;20448;-78
2022/09/06 07:58:00;;;;;;;10.27;8.70;;;23.10;99.90;;;;;;5051487;28;20132;-78
2022/09/06 08:00:26;;;;;;;9.50;8.60;;;23.10;99.90;;;;;;5051344;28;20051;-79
2022/09/06 08:02:52;;;;;;;10.23;8.27;;;23.70;99.90;;;;;;5035733;28;20123;-78
2022/09/06 08:05:17;;;;;;;;;;;24.50;99.90;;;;;;5052104;28;20033;-79
2022/09/06 08:07:43;;;;;;;9.93;8.57;;;24.90;98.40;;;;;;5051753;28;19960;-79
2022/09/06 08:10:08;;;;;;;;;;;25.50;98.80;;;;;;5051821;28;20079;-79
2022/09/06 08:12:34;;;;;;;9.88;8.45;;;26.00;96.80;;;;;;5035048;28;19917;-79
2022/09/06 08:15:00;;;;;;;;;;;26.00;96.40;;;;;;5052007;28;20132;-80
2022/09/06 08:17:25;;;;;;;9.93;8.38;;;25.60;96.50;;;;;;5034953;28;19917;-79
2022/09/06 08:19:51;;;;;;;;;;;25.10;96.90;;;;;;5051591;28;20061;-79
2022/09/06 08:22:16;;;;;;;9.60;8.23;;;24.90;97.20;;;;;;5051535;28;20412;-80
2022/09/06 08:24:42;;;;;;;;;;;25.10;97.30;;;;;;5051772;28;20048;-80
2022/09/06 08:27:08;;;;;;;11.70;8.40;;;25.30;97.10;;;;;;5051805;28;19934;-80
2022/09/06 08:29:34;;;;;;;;;;;25.70;97.30;;;;;;5052275;28;20041;-79
2022/09/06 08:31:59;;;;;;;11.13;7.93;;;26.20;96.80;;;;;;5067987;28;19916;-81
2022/09/06 08:34:25;;;;;;;;;;;26.60;96.40;;;;;;5034413;28;20402;-80
2022/09/06 08:36:51;;;;;;;9.15;8.20;;;27.00;95.80;;;;;;5034991;28;19972;-80
2022/09/06 08:39:17;;;;;;;9.27;7.90;;;27.30;95.40;;;;;;5051058;28;20033;-81
2022/09/06 08:41:59;;;;;;;10.02;8.45;;;27.30;95.50;;;;;;5034142;28;20052;-80
2022/09/06 08:44:34;;;;;;;9.77;8.15;;;27.60;94.60;;;;;;5034514;28;20044;-80
2022/09/06 08:47:18;;;;;;;8.85;7.95;;;27.70;94.70;;;;;;5034136;28;20052;-80
2022/09/06 08:49:46;;;;;;;9.98;8.23;;;28.10;94.50;;;;;;5034235;28;20056;-82
2022/09/06 08:52:41;;;;;;;7.63;6.57;;;28.50;94.30;;;;;;5051184;28;20041;-81
2022/09/06 08:55:32;;;;;;;10.10;7.55;;;28.80;93.90;;;;;;5051400;28;20041;-81
2022/09/06 08:58:04;;;;;;;9.13;7.30;;;28.60;93.60;;;;;;5054954;28;20129;-81
2022/09/06 09:00:31;;;;;;;8.30;7.35;;;28.50;94.00;;;;;;5055196;28;20037;-82
2022/09/06 09:03:11;;;;;;;8.00;7.13;;;28.60;94.00;;;;;;5038198;28;20045;-82
2022/09/06 09:05:38;;;;;;;8.43;7.55;;;28.90;93.70;;;;;;5037878;28;20041;-82
2022/09/06 09:08:19;;;;;;;8.50;7.60;;;29.00;93.70;;;;;;5054938;28;20037;-83
2022/09/06 09:10:57;;;;;;;9.30;7.68;;;29.40;93.10;;;;;;5038421;28;20033;-82
2022/09/06 09:13:33;;;;;;;8.45;7.10;;;29.30;92.90;;;;;;5055061;28;20440;-82
2022/09/06 09:15:58;;;;;;;8.80;7.57;;;28.90;93.20;;;;;;5054413;28;20045;-81
2022/09/06 09:18:28;;;;;;;8.48;7.60;;;28.90;93.40;;;;;;5037825;28;20075;-80
2022/09/06 09:20:58;;;;;;;12.38;8.60;;;28.60;93.30;;;;;;5054395;28;20064;-82
2022/09/06 09:23:23;;;;;;;9.50;7.50;;;28.20;93.60;;;;;;5054649;28;20048;-82
2022/09/06 09:25:51;;;;;;;8.02;7.22;;;28.10;94.20;;;;;;5054509;28;20051;-81
2022/09/06 09:28:21;;;;;;;8.30;7.15;;;28.20;93.90;;;;;;5053673;28;20044;-81
2022/09/06 09:30:55;;;;;;;8.77;7.40;;;27.70;94.10;;;;;;5062894;28;20068;-80
2022/09/06 09:33:33;;;;;;;9.88;7.72;;;27.40;94.60;;;;;;5086857;28;20079;-80
2022/09/06 09:36:06;;;;;;;9.10;7.28;;;27.40;94.60;;;;;;5059315;28;20387;-80
2022/09/06 09:38:45;;;;;;;8.40;7.32;;;27.50;94.40;;;;;;5073343;28;20052;-81
2022/09/06 09:41:28;;;;;;;7.65;6.68;;;27.50;94.40;;;;;;5056812;28;20064;-81
2022/09/06 09:44:16;;;;;;;7.57;6.88;;;27.70;94.30;;;;;;5057196;28;20401;-80
2022/09/06 09:46:42;;;;;;;9.00;7.35;;;28.20;94.20;;;;;;5083982;28;20066;-81
2022/09/06 09:49:09;;;;;;;8.32;6.45;;;28.70;94.00;;;;;;5076740;28;20528;-82
2022/09/06 09:51:38;;;;;;;9.90;7.80;;;29.00;93.40;;;;;;5093297;28;20043;-80
2022/09/06 09:54:07;;;;;;;9.05;6.80;;;29.30;93.10;;;;;;5076641;28;20075;-79
2022/09/06 09:56:35;;;;;;;8.68;7.40;;;29.40;93.30;;;;;;5077881;28;20051;-80
2022/09/06 09:59:06;;;;;;;7.82;7.07;;;29.70;93.30;;;;;;5072710;28;20409;-80
2022/09/06 10:01:52;;;;;;;9.23;7.35;;;30.00;92.80;;;;;;5073086;28;20047;-80
2022/09/06 10:07:54;;;;;;;11.70;8.23;;;30.70;92.20;;;;;;5057973;28;20067;-81
2022/09/06 10:10:21;;;;;;;13.55;8.20;;;30.80;92.30;;;;;;5072985;28;20037;-81
2022/09/06 10:12:47;;;;;;;11.85;8.00;;;31.00;92.40;;;;;;5079767;28;20035;-81
2022/09/06 10:15:37;;;;;;;9.70;8.00;;;31.10;92.20;;;;;;5093407;28;20046;-81
2022/09/06 10:18:03;;;;;;;10.30;8.40;;;31.20;91.70;;;;;;5069829;28;20028;-81
2022/09/06 10:20:49;;;;;;;10.85;8.70;;;31.20;91.80;;;;;;5039220;28;20053;-81
2022/09/06 10:23:17;;;;;;;12.18;8.07;;;31.00;91.50;;;;;;5039325;28;20224;-81
2022/09/06 10:25:45;;;;;;;12.52;7.65;;;30.90;91.60;;;;;;5038909;28;20035;-81
2022/09/06 10:28:30;;;;;;;12.13;8.05;;;30.90;92.00;;;;;;5055573;28;20039;-81
2022/09/06 10:31:11;;;;;;;9.32;7.20;;;31.00;92.00;;;;;;5039073;28;20047;-81
2022/09/06 10:33:55;;;;;;;9.32;7.85;;;31.20;91.80;;;;;;5039462;28;20461;-81
2022/09/06 10:36:45;;;;;;;9.07;8.02;;;31.60;91.90;;;;;;5039093;28;20043;-81
2022/09/06 10:39:31;;;;;;;9.05;8.07;;;32.10;91.70;;;;;;5055387;28;20046;-81
2022/09/06 10:42:17;;;;;;;9.07;7.65;;;32.20;91.40;;;;;;5038537;28;20500;-81
2022/09/06 10:45:12;;;;;;;9.77;8.88;;;32.20;91.20;;;;;;5072609;28;20074;-81
2022/09/06 10:48:01;;;;;;;11.77;7.78;;;32.60;91.30;;;;;;5038358;28;20093;-81
2022/09/06 10:51:12;;;;;;;9.32;8.43;;;33.20;90.90;;;;;;5055421;28;20039;-81
2022/09/06 10:54:00;;;;;;;11.82;8.45;;;33.10;91.10;;;;;;5022349;28;20389;-81
2022/09/06 10:56:33;;;;;;;9.55;7.18;;;32.90;90.90;;;;;;5055209;28;20042;-82
2022/09/06 10:59:06;;;;;;;8.27;7.47;;;32.70;91.00;;;;;;5072158;28;20148;-81
2022/09/06 11:01:43;;;;;;;14.30;7.88;;;33.00;90.50;;;;;;5072239;28;20404;-81
2022/09/06 11:04:18;;;;;;;9.20;8.27;;;32.90;90.70;;;;;;5055473;28;20042;-81
2022/09/06 11:06:51;;;;;;;8.93;7.45;;;32.90;90.40;;;;;;5038777;28;20046;-81
2022/09/06 11:09:30;;;;;;;10.40;7.85;;;32.90;90.70;;;;;;5038227;28;20127;-81
2022/09/06 11:12:11;;;;;;;8.48;6.63;;;32.90;90.40;;;;;;5055072;28;20092;-81
2022/09/06 11:14:38;;;;;;;8.07;6.18;;;33.50;90.10;;;;;;5071671;28;20050;-81
2022/09/06 11:17:09;;;;;;;10.75;6.80;;;33.70;90.40;;;;;;5072110;28;20047;-81
2022/09/06 11:20:01;;;;;;;9.23;7.35;;;33.40;89.60;;;;;;5038017;28;20062;-81
2022/09/06 11:22:27;;;;;;;9.15;6.47;;;33.50;89.80;;;;;;5054963;28;20054;-81
2022/09/06 11:25:10;;;;;;;8.20;5.70;;;33.60;90.40;;;;;;5038061;28;20122;-82
2022/09/06 11:27:39;;;;;;;7.63;5.78;;;33.60;90.10;;;;;;5038428;28;20047;-82
2022/09/06 11:30:06;;;;;;;6.60;5.57;;;33.40;89.60;;;;;;5071744;28;20488;-81
2022/09/06 11:32:47;;;;;;;10.48;6.45;;;33.90;90.00;;;;;;5038276;28;20078;-81
2022/09/06 11:35:27;;;;;;;9.63;5.80;;;33.60;89.30;;;;;;5071574;28;20130;-80
2022/09/06 11:38:03;;;;;;;9.00;6.13;;;33.70;89.70;;;;;;5071585;28;20073;-82
2022/09/06 11:40:37;;;;;;;10.75;7.13;;;33.70;89.60;;;;;;5037895;28;20039;-82
2022/09/06 11:43:03;;;;;;;7.32;5.95;;;33.70;89.00;;;;;;5071528;28;20069;-81
2022/09/06 11:45:43;;;;;;;7.15;6.47;;;34.00;88.90;;;;;;5054635;28;20042;-81
2022/09/06 11:48:32;;;;;;;7.78;5.75;;;33.40;88.50;;;;;;5071673;28;20043;-82
2022/09/06 11:50:58;;;;;;;6.30;4.97;;;33.20;88.90;;;;;;5037991;28;20118;-82
2022/09/06 11:53:30;;;;;;;5.65;5.05;;;33.80;89.10;;;;;;5037771;28;20488;-82
2022/09/06 11:55:59;;;;;;;9.48;4.78;;;34.30;87.90;;;;;;5070983;28;20060;-82
2022/09/06 11:58:39;;;;;;;6.10;4.72;;;34.70;88.10;;;;;;5037958;28;20042;-82
2022/09/06 12:01:15;;;;;;;6.72;4.85;;;34.90;87.70;;;;;;5037620;28;20045;-82
2022/09/06 12:03:49;;;;;;;8.98;4.63;;;34.70;87.40;;;;;;5038140;28;20423;-82
2022/09/06 12:06:18;;;;;;;6.55;4.93;;;34.70;87.50;;;;;;5071259;28;20101;-82
2022/09/06 12:08:48;;;;;;;5.60;4.70;;;34.60;86.70;;;;;;5038359;28;20043;-82
2022/09/06 12:11:32;;;;;;;6.20;4.43;;;34.50;86.80;;;;;;5071430;28;20050;-82
2022/09/06 12:14:08;;;;;;;5.13;4.15;;;34.60;87.10;;;;;;5037918;28;20049;-81
2022/09/06 12:16:55;;;;;;;5.25;4.35;;;34.00;88.00;;;;;;5038565;28;20480;-82
2022/09/06 12:19:44;;;;;;;6.47;4.20;;;33.80;87.90;;;;;;5054413;28;20047;-82
2022/09/06 12:22:28;;;;;;;7.70;4.50;;;33.90;87.50;;;;;;5071656;28;20051;-81
2022/09/06 12:25:05;;;;;;;7.07;4.45;;;33.90;88.70;;;;;;5037858;28;20039;-81
2022/09/06 12:27:32;;;;;;;6.60;4.38;;;34.30;87.30;;;;;;5038035;28;20500;-81
2022/09/06 12:30:00;;;;;;;5.07;4.55;;;34.30;87.80;;;;;;5070982;28;20049;-82
2022/09/06 12:32:36;;;;;;;4.95;4.15;;;34.80;87.60;;;;;;5040732;28;20039;-82
2022/09/06 12:35:06;;;;;;;6.25;4.00;;;34.70;86.80;;;;;;5057771;28;20043;-82
2022/09/06 12:37:52;;;;;;;7.05;4.22;;;34.50;87.20;;;;;;5041738;28;20130;-82
2022/09/06 12:40:19;;;;;;;6.35;3.83;;;34.50;87.30;;;;;;5041165;28;20100;-82
2022/09/06 12:42:47;;;;;;;7.93;4.05;;;34.60;86.70;;;;;;5041063;28;20045;-82
2022/09/06 12:45:14;;;;;;;5.40;4.15;;;35.00;87.00;;;;;;5041487;28;20539;-82
2022/09/06 12:47:40;;;;;;;4.72;3.60;;;35.20;87.10;;;;;;5041149;28;20510;-82
2022/09/06 12:50:24;;;;;;;6.80;4.07;;;35.10;86.90;;;;;;5041006;28;20039;-83
2022/09/06 12:52:50;;;;;;;5.45;3.85;;;34.90;86.60;;;;;;5057833;28;20050;-82
2022/09/06 12:55:23;;;;;;;5.88;3.60;;;34.90;86.50;;;;;;5041123;28;20038;-82
2022/09/06 12:57:54;;;;;;;4.60;4.00;;;35.10;86.60;;;;;;5074290;28;20046;-82
2022/09/06 13:00:22;;;;;;;6.03;3.83;;;34.70;86.20;;;;;;5057159;28;20132;-83
2022/09/06 13:03:07;;;;;;;8.23;4.10;;;35.10;86.60;;;;;;5041331;28;20038;-82
2022/09/06 13:05:36;;;;;;;4.28;3.88;;;35.50;86.40;;;;;;5040929;28;20121;-83
2022/09/06 13:08:02;;;;;;;8.07;4.10;;;35.30;86.00;;;;;;5073835;28;20487;-82
2022/09/06 13:10:28;;;;;;;6.47;3.88;;;35.10;86.70;;;;;;5056273;28;20520;-83